sensor_id;sensor_type;location;lat;lon;timestamp;temperature;humidity
18147;DHT22;9199;48.832;9.182;2023-07-16T00:01:05;19.60;99.90
18147;DHT22;9199;48.832;9.182;2023-07-16T00:03:31;19.60;99.90
18147;DHT22;9199;48.832;9.182;2023-07-16T00:05:59;19.50;99.90
18147;DHT22;9199;48.832;9.182;2023-07-16T00:08:26;19.40;99.90
18147;DHT22;9199;48.832;9.182;2023-07-16T00:10:53;19.30;99.90
18147;DHT22;9199;48.832;9.182;2023-07-16T00:13:19;19.30;99.90
18147;DHT22;9199;48.832;9.182;2023-07-16T00:15:46;19.30;99.90
18147;DHT22;9199;48.832;9.182;2023-07-16T00:18:13;19.30;99.90
18147;DHT22;9199;48.832;9.182;2023-07-16T00:20:40;19.20;99.90
18147;DHT22;9199;48.832;9.182;2023-07-16T00:23:08;19.20;99.90
18147;DHT22;9199;48.832;9.182;2023-07-16T00:25:35;19.20;99.90
18147;DHT22;9199;48.832;9.182;2023-07-16T00:28:01;19.10;99.90
18147;DHT22;9199;48.832;9.182;2023-07-16T00:30:28;19.10;99.90
18147;DHT22;9199;48.832;9.182;2023-07-16T00:32:55;19.10;99.90
18147;DHT22;9199;48.832;9.182;2023-07-16T00:35:22;19.10;99.90
18147;DHT22;9199;48.832;9.182;2023-07-16T00:37:49;19.10;99.90
18147;DHT22;9199;48.832;9.182;2023-07-16T00:40:17;19.00;99.90
18147;DHT22;9199;48.832;9.182;2023-07-16T00:42:44;19.00;99.90
18147;DHT22;9199;48.832;9.182;2023-07-16T00:45:12;19.10;99.90
18147;DHT22;9199;48.832;9.182;2023-07-16T00:47:41;19.10;99.90
18147;DHT22;9199;48.832;9.182;2023-07-16T00:50:09;19.10;99.90
18147;DHT22;9199;48.832;9.182;2023-07-16T00:52:36;19.10;99.90
18147;DHT22;9199;48.832;9.182;2023-07-16T00:55:04;19.20;99.90
18147;DHT22;9199;48.832;9.182;2023-07-16T00:57:33;19.20;99.90
18147;DHT22;9199;48.832;9.182;2023-07-16T01:00:00;19.30;99.90
18147;DHT22;9199;48.832;9.182;2023-07-16T01:02:27;19.30;99.90
18147;DHT22;9199;48.832;9.182;2023-07-16T01:04:53;19.30;99.90
18147;DHT22;9199;48.832;9.182;2023-07-16T01:07:22;19.30;99.90
18147;DHT22;9199;48.832;9.182;2023-07-16T01:09:50;19.20;99.90
18147;DHT22;9199;48.832;9.182;2023-07-16T01:12:21;19.20;99.90
18147;DHT22;9199;48.832;9.182;2023-07-16T01:14:50;19.20;99.90
18147;DHT22;9199;48.832;9.182;2023-07-16T01:17:18;19.10;99.90
18147;DHT22;9199;48.832;9.182;2023-07-16T01:19:45;19.10;99.90
18147;DHT22;9199;48.832;9.182;2023-07-16T01:22:28;19.10;99.90
18147;DHT22;9199;48.832;9.182;2023-07-16T01:25:09;19.10;99.90
18147;DHT22;9199;48.832;9.182;2023-07-16T01:27:52;19.10;99.90
18147;DHT22;9199;48.832;9.182;2023-07-16T01:30:26;19.10;99.90
18147;DHT22;9199;48.832;9.182;2023-07-16T01:32:55;19.20;99.90
18147;DHT22;9199;48.832;9.182;2023-07-16T01:35:22;19.20;99.90
18147;DHT22;9199;48.832;9.182;2023-07-16T01:37:49;19.20;99.90
18147;DHT22;9199;48.832;9.182;2023-07-16T01:40:16;19.20;99.90
18147;DHT22;9199;48.832;9.182;2023-07-16T01:42:42;19.10;99.90
18147;DHT22;9199;48.832;9.182;2023-07-16T01:45:09;19.10;99.90
18147;DHT22;9199;48.832;9.182;2023-07-16T01:47:43;19.10;99.90
18147;DHT22;9199;48.832;9.182;2023-07-16T01:50:13;19.00;99.90
18147;DHT22;9199;48.832;9.182;2023-07-16T01:52:39;18.90;99.90
18147;DHT22;9199;48.832;9.182;2023-07-16T01:55:07;18.80;99.90
18147;DHT22;9199;48.832;9.182;2023-07-16T01:57:34;18.70;99.90
18147;DHT22;9199;48.832;9.182;2023-07-16T02:00:00;18.70;99.90
18147;DHT22;9199;48.832;9.182;2023-07-16T02:02:27;18.60;99.90
18147;DHT22;9199;48.832;9.182;2023-07-16T02:04:54;18.60;99.90
18147;DHT22;9199;48.832;9.182;2023-07-16T02:07:21;18.50;99.90
18147;DHT22;9199;48.832;9.182;2023-07-16T02:09:49;18.50;99.90
18147;DHT22;9199;48.832;9.182;2023-07-16T02:12:16;18.50;99.90
18147;DHT22;9199;48.832;9.182;2023-07-16T02:14:43;18.50;99.90
18147;DHT22;9199;48.832;9.182;2023-07-16T02:17:09;18.50;99.90
18147;DHT22;9199;48.832;9.182;2023-07-16T02:19:36;18.50;99.90
18147;DHT22;9199;48.832;9.182;2023-07-16T02:22:05;18.50;99.90
18147;DHT22;9199;48.832;9.182;2023-07-16T02:24:34;18.50;99.90
18147;DHT22;9199;48.832;9.182;2023-07-16T02:27:02;18.50;99.90
18147;DHT22;9199;48.832;9.182;2023-07-16T02:29:28;18.60;99.90
18147;DHT22;9199;48.832;9.182;2023-07-16T02:31:55;18.60;99.90
18147;DHT22;9199;48.832;9.182;2023-07-16T02:34:22;18.60;99.90
18147;DHT22;9199;48.832;9.182;2023-07-16T02:36:48;18.60;99.90
18147;DHT22;9199;48.832;9.182;2023-07-16T02:39:16;18.60;99.90
18147;DHT22;9199;48.832;9.182;2023-07-16T02:41:43;18.60;99.90
18147;DHT22;9199;48.832;9.182;2023-07-16T02:44:10;18.60;99.90
18147;DHT22;9199;48.832;9.182;2023-07-16T02:46:36;18.50;99.90
18147;DHT22;9199;48.832;9.182;2023-07-16T02:49:03;18.50;99.90
18147;DHT22;9199;48.832;9.182;2023-07-16T02:51:30;18.50;99.90
18147;DHT22;9199;48.832;9.182;2023-07-16T02:53:57;18.40;99.90
18147;DHT22;9199;48.832;9.182;2023-07-16T02:56:25;18.40;99.90
18147;DHT22;9199;48.832;9.182;2023-07-16T02:58:52;18.40;99.90
18147;DHT22;9199;48.832;9.182;2023-07-16T03:01:18;18.40;99.90
18147;DHT22;9199;48.832;9.182;2023-07-16T03:03:45;18.40;99.90
18147;DHT22;9199;48.832;9.182;2023-07-16T03:06:12;18.30;99.90
18147;DHT22;9199;48.832;9.182;2023-07-16T03:08:39;18.40;99.90
18147;DHT22;9199;48.832;9.182;2023-07-16T03:11:06;18.30;99.90
18147;DHT22;9199;48.832;9.182;2023-07-16T03:13:34;18.30;99.90
18147;DHT22;9199;48.832;9.182;2023-07-16T03:16:00;18.30;99.90
18147;DHT22;9199;48.832;9.182;2023-07-16T03:18:28;18.30;99.90
18147;DHT22;9199;48.832;9.182;2023-07-16T03:20:55;18.30;99.90
18147;DHT22;9199;48.832;9.182;2023-07-16T03:23:23;18.30;99.90
18147;DHT22;9199;48.832;9.182;2023-07-16T03:25:49;18.30;99.90
18147;DHT22;9199;48.832;9.182;2023-07-16T03:28:16;18.20;99.90
18147;DHT22;9199;48.832;9.182;2023-07-16T03:30:46;18.20;99.90
18147;DHT22;9199;48.832;9.182;2023-07-16T03:33:13;18.20;99.90
18147;DHT22;9199;48.832;9.182;2023-07-16T03:35:42;18.20;99.90
18147;DHT22;9199;48.832;9.182;2023-07-16T03:38:09;18.20;99.90
18147;DHT22;9199;48.832;9.182;2023-07-16T03:40:36;18.20;99.90
18147;DHT22;9199;48.832;9.182;2023-07-16T03:43:03;18.20;99.90
18147;DHT22;9199;48.832;9.182;2023-07-16T03:45:30;18.20;99.90
18147;DHT22;9199;48.832;9.182;2023-07-16T03:47:58;18.20;99.90
18147;DHT22;9199;48.832;9.182;2023-07-16T03:50:24;18.20;99.90
18147;DHT22;9199;48.832;9.182;2023-07-16T03:52:51;18.20;99.90
18147;DHT22;9199;48.832;9.182;2023-07-16T03:55:18;18.10;99.90
18147;DHT22;9199;48.832;9.182;2023-07-16T03:57:45;18.10;99.90
18147;DHT22;9199;48.832;9.182;2023-07-16T04:00:12;18.10;99.90
18147;DHT22;9199;48.832;9.182;2023-07-16T04:02:39;18.00;99.90
18147;DHT22;9199;48.832;9.182;2023-07-16T04:05:08;17.90;99.90
18147;DHT22;9199;48.832;9.182;2023-07-16T04:07:35;17.90;99.90
18147;DHT22;9199;48.832;9.182;2023-07-16T04:10:01;17.90;99.90
18147;DHT22;9199;48.832;9.182;2023-07-16T04:12:28;17.90;99.90
18147;DHT22;9199;48.832;9.182;2023-07-16T04:14:57;17.90;99.90
18147;DHT22;9199;48.832;9.182;2023-07-16T04:17:24;17.90;99.90
18147;DHT22;9199;48.832;9.182;2023-07-16T04:19:51;17.90;99.90
18147;DHT22;9199;48.832;9.182;2023-07-16T04:22:19;17.90;99.90
18147;DHT22;9199;48.832;9.182;2023-07-16T04:24:46;17.90;99.90
18147;DHT22;9199;48.832;9.182;2023-07-16T04:27:12;18.00;99.90
18147;DHT22;9199;48.832;9.182;2023-07-16T04:29:39;18.00;99.90
18147;DHT22;9199;48.832;9.182;2023-07-16T04:32:06;18.00;99.90
18147;DHT22;9199;48.832;9.182;2023-07-16T04:34:33;18.10;99.90
18147;DHT22;9199;48.832;9.182;2023-07-16T04:37:00;18.00;99.90
18147;DHT22;9199;48.832;9.182;2023-07-16T04:39:28;18.00;99.90
18147;DHT22;9199;48.832;9.182;2023-07-16T04:41:55;18.10;99.90
18147;DHT22;9199;48.832;9.182;2023-07-16T04:44:21;18.10;99.90
18147;DHT22;9199;48.832;9.182;2023-07-16T04:46:48;18.10;99.90
18147;DHT22;9199;48.832;9.182;2023-07-16T04:49:15;18.10;99.90
18147;DHT22;9199;48.832;9.182;2023-07-16T04:51:41;18.00;99.90
18147;DHT22;9199;48.832;9.182;2023-07-16T04:54:08;18.10;99.90
18147;DHT22;9199;48.832;9.182;2023-07-16T04:56:36;18.00;99.90
18147;DHT22;9199;48.832;9.182;2023-07-16T04:59:03;18.00;99.90
18147;DHT22;9199;48.832;9.182;2023-07-16T05:01:30;18.00;99.90
18147;DHT22;9199;48.832;9.182;2023-07-16T05:03:56;18.00;99.90
18147;DHT22;9199;48.832;9.182;2023-07-16T05:06:23;18.10;99.90
18147;DHT22;9199;48.832;9.182;2023-07-16T05:08:50;18.30;99.90
18147;DHT22;9199;48.832;9.182;2023-07-16T05:11:17;18.40;99.90
18147;DHT22;9199;48.832;9.182;2023-07-16T05:13:45;18.60;99.90
18147;DHT22;9199;48.832;9.182;2023-07-16T05:16:11;18.70;99.90
18147;DHT22;9199;48.832;9.182;2023-07-16T05:18:38;18.90;99.90
18147;DHT22;9199;48.832;9.182;2023-07-16T05:21:05;19.00;99.90
18147;DHT22;9199;48.832;9.182;2023-07-16T05:23:31;19.10;99.90
18147;DHT22;9199;48.832;9.182;2023-07-16T05:25:58;19.20;99.90
18147;DHT22;9199;48.832;9.182;2023-07-16T05:28:25;19.20;99.90
18147;DHT22;9199;48.832;9.182;2023-07-16T05:30:59;19.20;99.90
18147;DHT22;9199;48.832;9.182;2023-07-16T05:33:26;19.30;99.90
18147;DHT22;9199;48.832;9.182;2023-07-16T05:35:52;19.30;99.90
18147;DHT22;9199;48.832;9.182;2023-07-16T05:38:19;19.30;99.90
18147;DHT22;9199;48.832;9.182;2023-07-16T05:40:46;19.40;99.90
18147;DHT22;9199;48.832;9.182;2023-07-16T05:43:13;19.50;99.90
18147;DHT22;9199;48.832;9.182;2023-07-16T05:45:40;19.50;99.90
18147;DHT22;9199;48.832;9.182;2023-07-16T05:48:08;19.50;99.90
18147;DHT22;9199;48.832;9.182;2023-07-16T05:50:35;19.60;99.90
18147;DHT22;9199;48.832;9.182;2023-07-16T05:53:01;19.70;99.90
18147;DHT22;9199;48.832;9.182;2023-07-16T05:55:28;19.60;99.90
18147;DHT22;9199;48.832;9.182;2023-07-16T05:57:55;19.70;99.90
18147;DHT22;9199;48.832;9.182;2023-07-16T06:00:22;19.70;99.90
18147;DHT22;9199;48.832;9.182;2023-07-16T06:02:49;19.60;99.90
18147;DHT22;9199;48.832;9.182;2023-07-16T06:05:17;19.60;99.90
18147;DHT22;9199;48.832;9.182;2023-07-16T06:07:44;19.70;99.90
18147;DHT22;9199;48.832;9.182;2023-07-16T06:10:11;19.80;99.90
18147;DHT22;9199;48.832;9.182;2023-07-16T06:12:37;19.80;99.90
18147;DHT22;9199;48.832;9.182;2023-07-16T06:15:05;19.80;99.90
18147;DHT22;9199;48.832;9.182;2023-07-16T06:17:31;19.80;99.90
18147;DHT22;9199;48.832;9.182;2023-07-16T06:19:58;19.70;99.90
18147;DHT22;9199;48.832;9.182;2023-07-16T06:22:26;19.70;99.90
18147;DHT22;9199;48.832;9.182;2023-07-16T06:24:53;19.80;99.90
18147;DHT22;9199;48.832;9.182;2023-07-16T06:27:21;19.80;99.90
18147;DHT22;9199;48.832;9.182;2023-07-16T06:29:47;19.80;99.90
18147;DHT22;9199;48.832;9.182;2023-07-16T06:32:14;19.90;99.90
18147;DHT22;9199;48.832;9.182;2023-07-16T06:34:41;20.00;99.90
18147;DHT22;9199;48.832;9.182;2023-07-16T06:37:07;20.00;99.90
18147;DHT22;9199;48.832;9.182;2023-07-16T06:39:35;20.10;99.90
18147;DHT22;9199;48.832;9.182;2023-07-16T06:42:02;20.20;99.90
18147;DHT22;9199;48.832;9.182;2023-07-16T06:44:29;20.40;99.90
18147;DHT22;9199;48.832;9.182;2023-07-16T06:46:56;20.60;99.90
18147;DHT22;9199;48.832;9.182;2023-07-16T06:49:23;20.70;99.90
18147;DHT22;9199;48.832;9.182;2023-07-16T06:51:50;20.80;99.90
18147;DHT22;9199;48.832;9.182;2023-07-16T06:54:16;20.90;99.90
18147;DHT22;9199;48.832;9.182;2023-07-16T06:56:44;21.00;99.90
18147;DHT22;9199;48.832;9.182;2023-07-16T06:59:11;21.00;99.90
18147;DHT22;9199;48.832;9.182;2023-07-16T07:01:38;21.30;99.90
18147;DHT22;9199;48.832;9.182;2023-07-16T07:04:04;21.50;99.90
18147;DHT22;9199;48.832;9.182;2023-07-16T07:06:31;21.60;99.90
18147;DHT22;9199;48.832;9.182;2023-07-16T07:08:58;21.60;99.90
18147;DHT22;9199;48.832;9.182;2023-07-16T07:11:25;21.50;99.90
18147;DHT22;9199;48.832;9.182;2023-07-16T07:13:53;21.50;99.90
18147;DHT22;9199;48.832;9.182;2023-07-16T07:16:22;21.40;99.90
18147;DHT22;9199;48.832;9.182;2023-07-16T07:18:49;21.50;99.90
18147;DHT22;9199;48.832;9.182;2023-07-16T07:21:15;21.80;99.90
18147;DHT22;9199;48.832;9.182;2023-07-16T07:23:42;21.90;99.90
18147;DHT22;9199;48.832;9.182;2023-07-16T07:26:09;21.90;99.90
18147;DHT22;9199;48.832;9.182;2023-07-16T07:28:36;21.90;99.90
18147;DHT22;9199;48.832;9.182;2023-07-16T07:31:04;21.90;99.90
18147;DHT22;9199;48.832;9.182;2023-07-16T07:33:31;22.20;99.90
18147;DHT22;9199;48.832;9.182;2023-07-16T07:35:58;22.20;99.90
18147;DHT22;9199;48.832;9.182;2023-07-16T07:38:25;22.20;99.90
18147;DHT22;9199;48.832;9.182;2023-07-16T07:40:51;22.20;99.90
18147;DHT22;9199;48.832;9.182;2023-07-16T07:43:18;22.30;99.90
18147;DHT22;9199;48.832;9.182;2023-07-16T07:45:45;22.30;99.90
18147;DHT22;9199;48.832;9.182;2023-07-16T07:48:13;22.60;99.90
18147;DHT22;9199;48.832;9.182;2023-07-16T07:50:40;22.70;99.90
18147;DHT22;9199;48.832;9.182;2023-07-16T07:53:07;22.70;99.90
18147;DHT22;9199;48.832;9.182;2023-07-16T07:55:33;22.90;99.90
18147;DHT22;9199;48.832;9.182;2023-07-16T07:58:00;23.30;99.90
18147;DHT22;9199;48.832;9.182;2023-07-16T08:00:27;23.40;99.90
18147;DHT22;9199;48.832;9.182;2023-07-16T08:02:54;23.50;99.90
18147;DHT22;9199;48.832;9.182;2023-07-16T08:05:22;23.80;99.90
18147;DHT22;9199;48.832;9.182;2023-07-16T08:07:49;23.70;99.90
18147;DHT22;9199;48.832;9.182;2023-07-16T08:10:17;23.50;99.90
18147;DHT22;9199;48.832;9.182;2023-07-16T08:12:43;23.20;99.90
18147;DHT22;9199;48.832;9.182;2023-07-16T08:15:10;22.90;99.90
18147;DHT22;9199;48.832;9.182;2023-07-16T08:17:39;23.00;99.90
18147;DHT22;9199;48.832;9.182;2023-07-16T08:20:07;23.10;99.90
18147;DHT22;9199;48.832;9.182;2023-07-16T08:22:36;23.30;99.90
18147;DHT22;9199;48.832;9.182;2023-07-16T08:25:03;23.50;99.90
18147;DHT22;9199;48.832;9.182;2023-07-16T08:27:30;23.90;99.90
18147;DHT22;9199;48.832;9.182;2023-07-16T08:29:57;24.10;99.90
18147;DHT22;9199;48.832;9.182;2023-07-16T08:32:23;24.40;99.40
18147;DHT22;9199;48.832;9.182;2023-07-16T08:34:50;24.50;99.90
18147;DHT22;9199;48.832;9.182;2023-07-16T08:37:17;25.00;97.70
18147;DHT22;9199;48.832;9.182;2023-07-16T08:39:45;25.30;96.90
18147;DHT22;9199;48.832;9.182;2023-07-16T08:42:12;25.40;97.10
18147;DHT22;9199;48.832;9.182;2023-07-16T08:44:39;25.40;95.80
18147;DHT22;9199;48.832;9.182;2023-07-16T08:47:07;25.30;93.80
18147;DHT22;9199;48.832;9.182;2023-07-16T08:49:34;25.20;94.00
18147;DHT22;9199;48.832;9.182;2023-07-16T08:52:01;25.20;93.20
18147;DHT22;9199;48.832;9.182;2023-07-16T08:54:28;25.20;93.40
18147;DHT22;9199;48.832;9.182;2023-07-16T08:56:57;25.60;92.50
18147;DHT22;9199;48.832;9.182;2023-07-16T08:59:25;25.60;92.10
18147;DHT22;9199;48.832;9.182;2023-07-16T09:01:52;25.10;92.80
18147;DHT22;9199;48.832;9.182;2023-07-16T09:04:19;25.00;93.10
18147;DHT22;9199;48.832;9.182;2023-07-16T09:06:46;25.10;93.00
18147;DHT22;9199;48.832;9.182;2023-07-16T09:09:19;24.70;93.50
18147;DHT22;9199;48.832;9.182;2023-07-16T09:11:47;24.50;95.80
18147;DHT22;9199;48.832;9.182;2023-07-16T09:14:17;24.40;94.40
18147;DHT22;9199;48.832;9.182;2023-07-16T09:16:47;24.30;93.60
18147;DHT22;9199;48.832;9.182;2023-07-16T09:19:15;24.10;93.90
18147;DHT22;9199;48.832;9.182;2023-07-16T09:21:46;23.80;94.10
18147;DHT22;9199;48.832;9.182;2023-07-16T09:24:12;23.80;95.70
18147;DHT22;9199;48.832;9.182;2023-07-16T09:26:47;23.90;95.30
18147;DHT22;9199;48.832;9.182;2023-07-16T09:29:15;24.00;94.90
18147;DHT22;9199;48.832;9.182;2023-07-16T09:31:52;24.20;95.00
18147;DHT22;9199;48.832;9.182;2023-07-16T09:34:19;24.70;94.50
18147;DHT22;9199;48.832;9.182;2023-07-16T09:36:47;25.50;93.60
18147;DHT22;9199;48.832;9.182;2023-07-16T09:39:16;25.70;93.40
18147;DHT22;9199;48.832;9.182;2023-07-16T09:41:43;25.40;93.00
18147;DHT22;9199;48.832;9.182;2023-07-16T09:44:11;25.30;92.80
18147;DHT22;9199;48.832;9.182;2023-07-16T09:46:39;25.50;92.00
18147;DHT22;9199;48.832;9.182;2023-07-16T09:49:06;25.60;92.10
18147;DHT22;9199;48.832;9.182;2023-07-16T09:51:35;26.30;93.10
18147;DHT22;9199;48.832;9.182;2023-07-16T09:54:03;27.10;91.00
18147;DHT22;9199;48.832;9.182;2023-07-16T09:56:34;27.00;90.30
18147;DHT22;9199;48.832;9.182;2023-07-16T09:59:02;26.70;91.10
18147;DHT22;9199;48.832;9.182;2023-07-16T10:01:32;26.70;91.60
18147;DHT22;9199;48.832;9.182;2023-07-16T10:04:11;27.10;91.70
18147;DHT22;9199;48.832;9.182;2023-07-16T10:06:49;27.80;92.30
18147;DHT22;9199;48.832;9.182;2023-07-16T10:09:34;28.40;89.00
18147;DHT22;9199;48.832;9.182;2023-07-16T10:12:11;29.20;86.80
18147;DHT22;9199;48.832;9.182;2023-07-16T10:14:42;29.60;85.60
18147;DHT22;9199;48.832;9.182;2023-07-16T10:17:13;29.00;83.50
18147;DHT22;9199;48.832;9.182;2023-07-16T10:19:49;28.20;85.90
18147;DHT22;9199;48.832;9.182;2023-07-16T10:22:17;28.00;88.50
18147;DHT22;9199;48.832;9.182;2023-07-16T10:24:50;27.50;89.60
18147;DHT22;9199;48.832;9.182;2023-07-16T10:27:26;27.00;90.70
18147;DHT22;9199;48.832;9.182;2023-07-16T10:29:53;26.80;91.20
18147;DHT22;9199;48.832;9.182;2023-07-16T10:32:21;26.70;90.30
18147;DHT22;9199;48.832;9.182;2023-07-16T10:34:49;26.50;91.00
18147;DHT22;9199;48.832;9.182;2023-07-16T10:37:15;26.40;90.60
18147;DHT22;9199;48.832;9.182;2023-07-16T10:39:46;26.40;90.70
18147;DHT22;9199;48.832;9.182;2023-07-16T10:42:13;26.20;91.30
18147;DHT22;9199;48.832;9.182;2023-07-16T10:44:42;26.40;91.60
18147;DHT22;9199;48.832;9.182;2023-07-16T10:47:09;27.20;90.70
18147;DHT22;9199;48.832;9.182;2023-07-16T10:49:36;28.30;88.20
18147;DHT22;9199;48.832;9.182;2023-07-16T10:52:05;28.90;86.70
18147;DHT22;9199;48.832;9.182;2023-07-16T10:54:31;29.20;83.10
18147;DHT22;9199;48.832;9.182;2023-07-16T10:56:58;29.70;85.00
18147;DHT22;9199;48.832;9.182;2023-07-16T10:59:25;30.60;79.00
18147;DHT22;9199;48.832;9.182;2023-07-16T11:01:52;31.40;75.80
18147;DHT22;9199;48.832;9.182;2023-07-16T11:04:18;32.10;75.10
18147;DHT22;9199;48.832;9.182;2023-07-16T11:06:45;32.40;69.90
18147;DHT22;9199;48.832;9.182;2023-07-16T11:09:13;32.90;67.70
18147;DHT22;9199;48.832;9.182;2023-07-16T11:11:40;33.50;64.40
18147;DHT22;9199;48.832;9.182;2023-07-16T11:14:07;33.40;66.00
18147;DHT22;9199;48.832;9.182;2023-07-16T11:16:34;33.10;64.90
18147;DHT22;9199;48.832;9.182;2023-07-16T11:19:03;33.10;65.10
18147;DHT22;9199;48.832;9.182;2023-07-16T11:21:32;33.10;65.10
18147;DHT22;9199;48.832;9.182;2023-07-16T11:24:08;32.90;65.20
18147;DHT22;9199;48.832;9.182;2023-07-16T11:26:36;32.50;66.00
18147;DHT22;9199;48.832;9.182;2023-07-16T11:29:12;32.00;66.10
18147;DHT22;9199;48.832;9.182;2023-07-16T11:31:40;31.10;66.30
18147;DHT22;9199;48.832;9.182;2023-07-16T11:34:07;30.70;68.10
18147;DHT22;9199;48.832;9.182;2023-07-16T11:36:34;30.40;68.30
18147;DHT22;9199;48.832;9.182;2023-07-16T11:39:02;29.70;71.90
18147;DHT22;9199;48.832;9.182;2023-07-16T11:41:29;29.90;70.80
18147;DHT22;9199;48.832;9.182;2023-07-16T11:44:00;30.60;68.30
18147;DHT22;9199;48.832;9.182;2023-07-16T11:46:31;30.50;68.40
18147;DHT22;9199;48.832;9.182;2023-07-16T11:48:58;30.10;68.80
18147;DHT22;9199;48.832;9.182;2023-07-16T11:51:25;29.30;70.30
18147;DHT22;9199;48.832;9.182;2023-07-16T11:53:52;29.20;71.70
18147;DHT22;9199;48.832;9.182;2023-07-16T11:56:18;29.20;72.00
18147;DHT22;9199;48.832;9.182;2023-07-16T11:58:45;28.90;70.00
18147;DHT22;9199;48.832;9.182;2023-07-16T12:01:13;29.40;70.40
18147;DHT22;9199;48.832;9.182;2023-07-16T12:03:40;29.20;71.50
18147;DHT22;9199;48.832;9.182;2023-07-16T12:06:08;28.70;71.10
18147;DHT22;9199;48.832;9.182;2023-07-16T12:08:35;28.30;73.10
18147;DHT22;9199;48.832;9.182;2023-07-16T12:11:01;27.90;71.80
18147;DHT22;9199;48.832;9.182;2023-07-16T12:13:28;27.80;74.80
18147;DHT22;9199;48.832;9.182;2023-07-16T12:15:55;28.00;72.90
18147;DHT22;9199;48.832;9.182;2023-07-16T12:18:23;28.50;74.60
18147;DHT22;9199;48.832;9.182;2023-07-16T12:20:49;29.10;72.60
18147;DHT22;9199;48.832;9.182;2023-07-16T12:23:16;29.60;69.00
18147;DHT22;9199;48.832;9.182;2023-07-16T12:25:43;29.90;70.60
18147;DHT22;9199;48.832;9.182;2023-07-16T12:28:09;30.70;68.10
18147;DHT22;9199;48.832;9.182;2023-07-16T12:30:37;31.60;66.70
18147;DHT22;9199;48.832;9.182;2023-07-16T12:33:04;32.00;65.50
18147;DHT22;9199;48.832;9.182;2023-07-16T12:35:32;32.40;64.20
18147;DHT22;9199;48.832;9.182;2023-07-16T12:37:59;33.60;62.50
18147;DHT22;9199;48.832;9.182;2023-07-16T12:40:27;34.50;58.30
18147;DHT22;9199;48.832;9.182;2023-07-16T12:42:54;34.90;56.70
18147;DHT22;9199;48.832;9.182;2023-07-16T12:45:21;35.00;56.50
18147;DHT22;9199;48.832;9.182;2023-07-16T12:47:48;34.50;56.00
18147;DHT22;9199;48.832;9.182;2023-07-16T12:50:16;34.20;56.40
18147;DHT22;9199;48.832;9.182;2023-07-16T12:52:44;33.80;55.30
18147;DHT22;9199;48.832;9.182;2023-07-16T12:55:10;33.80;55.50
18147;DHT22;9199;48.832;9.182;2023-07-16T12:57:39;33.90;55.20
18147;DHT22;9199;48.832;9.182;2023-07-16T13:00:06;34.80;53.80
18147;DHT22;9199;48.832;9.182;2023-07-16T13:02:35;35.20;51.90
18147;DHT22;9199;48.832;9.182;2023-07-16T13:05:02;34.60;53.20
18147;DHT22;9199;48.832;9.182;2023-07-16T13:07:30;34.00;52.90
18147;DHT22;9199;48.832;9.182;2023-07-16T13:09:58;34.20;51.90
18147;DHT22;9199;48.832;9.182;2023-07-16T13:12:25;34.80;52.50
18147;DHT22;9199;48.832;9.182;2023-07-16T13:14:52;34.90;52.40
18147;DHT22;9199;48.832;9.182;2023-07-16T13:17:19;34.40;51.90
18147;DHT22;9199;48.832;9.182;2023-07-16T13:19:45;35.00;53.40
18147;DHT22;9199;48.832;9.182;2023-07-16T13:22:13;34.70;51.90
18147;DHT22;9199;48.832;9.182;2023-07-16T13:24:40;34.80;52.30
18147;DHT22;9199;48.832;9.182;2023-07-16T13:27:18;34.90;53.60
18147;DHT22;9199;48.832;9.182;2023-07-16T13:29:45;35.20;51.70
18147;DHT22;9199;48.832;9.182;2023-07-16T13:32:12;35.20;51.70
18147;DHT22;9199;48.832;9.182;2023-07-16T13:34:39;34.90;52.60
18147;DHT22;9199;48.832;9.182;2023-07-16T13:37:05;35.30;52.00
18147;DHT22;9199;48.832;9.182;2023-07-16T13:39:32;35.60;50.10
18147;DHT22;9199;48.832;9.182;2023-07-16T13:41:59;35.70;50.30
18147;DHT22;9199;48.832;9.182;2023-07-16T13:44:27;36.10;49.00
18147;DHT22;9199;48.832;9.182;2023-07-16T13:46:54;36.20;50.50
18147;DHT22;9199;48.832;9.182;2023-07-16T13:49:20;35.60;49.80
18147;DHT22;9199;48.832;9.182;2023-07-16T13:51:47;35.50;50.60
18147;DHT22;9199;48.832;9.182;2023-07-16T13:54:14;35.50;50.90
18147;DHT22;9199;48.832;9.182;2023-07-16T13:56:40;36.10;50.10
18147;DHT22;9199;48.832;9.182;2023-07-16T13:59:07;37.00;48.10
18147;DHT22;9199;48.832;9.182;2023-07-16T14:01:38;38.10;45.20
18147;DHT22;9199;48.832;9.182;2023-07-16T14:04:05;39.00;43.30
18147;DHT22;9199;48.832;9.182;2023-07-16T14:06:32;39.60;42.70
18147;DHT22;9199;48.832;9.182;2023-07-16T14:08:59;39.70;42.80
18147;DHT22;9199;48.832;9.182;2023-07-16T14:11:26;39.30;41.50
18147;DHT22;9199;48.832;9.182;2023-07-16T14:13:53;38.60;41.80
18147;DHT22;9199;48.832;9.182;2023-07-16T14:16:20;37.60;42.90
18147;DHT22;9199;48.832;9.182;2023-07-16T14:18:51;37.70;41.80
18147;DHT22;9199;48.832;9.182;2023-07-16T14:21:18;36.80;44.40
18147;DHT22;9199;48.832;9.182;2023-07-16T14:23:45;37.40;43.60
18147;DHT22;9199;48.832;9.182;2023-07-16T14:26:12;37.10;44.70
18147;DHT22;9199;48.832;9.182;2023-07-16T14:28:39;36.90;44.50
18147;DHT22;9199;48.832;9.182;2023-07-16T14:31:06;36.80;45.00
18147;DHT22;9199;48.832;9.182;2023-07-16T14:33:32;36.40;45.60
18147;DHT22;9199;48.832;9.182;2023-07-16T14:36:00;36.00;46.00
18147;DHT22;9199;48.832;9.182;2023-07-16T14:38:28;35.80;47.00
18147;DHT22;9199;48.832;9.182;2023-07-16T14:40:55;35.90;47.90
18147;DHT22;9199;48.832;9.182;2023-07-16T14:43:22;35.60;48.10
18147;DHT22;9199;48.832;9.182;2023-07-16T14:45:48;35.20;48.20
18147;DHT22;9199;48.832;9.182;2023-07-16T14:48:15;34.00;49.10
18147;DHT22;9199;48.832;9.182;2023-07-16T14:50:42;32.80;51.20
18147;DHT22;9199;48.832;9.182;2023-07-16T14:53:10;32.00;52.60
18147;DHT22;9199;48.832;9.182;2023-07-16T14:55:38;32.10;52.60
18147;DHT22;9199;48.832;9.182;2023-07-16T14:58:05;32.40;53.40
18147;DHT22;9199;48.832;9.182;2023-07-16T15:00:32;32.50;53.40
18147;DHT22;9199;48.832;9.182;2023-07-16T15:02:59;32.10;53.60
18147;DHT22;9199;48.832;9.182;2023-07-16T15:05:25;31.50;54.60
18147;DHT22;9199;48.832;9.182;2023-07-16T15:07:52;31.00;54.90
18147;DHT22;9199;48.832;9.182;2023-07-16T15:10:23;31.00;54.20
18147;DHT22;9199;48.832;9.182;2023-07-16T15:12:50;31.00;54.10
18147;DHT22;9199;48.832;9.182;2023-07-16T15:15:17;30.70;55.40
18147;DHT22;9199;48.832;9.182;2023-07-16T15:17:44;30.50;56.50
18147;DHT22;9199;48.832;9.182;2023-07-16T15:20:11;31.10;55.00
18147;DHT22;9199;48.832;9.182;2023-07-16T15:22:38;31.50;53.80
18147;DHT22;9199;48.832;9.182;2023-07-16T15:25:06;31.20;54.60
18147;DHT22;9199;48.832;9.182;2023-07-16T15:27:34;30.70;55.30
18147;DHT22;9199;48.832;9.182;2023-07-16T15:30:01;30.30;55.90
18147;DHT22;9199;48.832;9.182;2023-07-16T15:32:28;29.90;57.40
18147;DHT22;9199;48.832;9.182;2023-07-16T15:34:54;29.60;57.90
18147;DHT22;9199;48.832;9.182;2023-07-16T15:37:21;29.10;58.30
18147;DHT22;9199;48.832;9.182;2023-07-16T15:39:48;28.70;58.50
18147;DHT22;9199;48.832;9.182;2023-07-16T15:42:14;28.40;59.50
18147;DHT22;9199;48.832;9.182;2023-07-16T15:44:42;28.30;60.20
18147;DHT22;9199;48.832;9.182;2023-07-16T15:47:09;28.20;60.70